Black Hawk, South Dakota
Current Conditions -  °F | °C
As of 8:58 AM on Saturday 20 Dec 2014 (Local Time) from KRCA Reporting Station
Overcast Overcast  
Wind Chill: 31°   Ceiling: 9000
Heat Index: 36°   Visibility: 10mi
Dew Point: 25°   Wind: 6mph
Humidity: 65%   Direction: 270°W
Pressure: 29.9"   Gusts: NA
Location:  44.17°N, 103.33°W
Report Text: KRCA 201558Z AUTO 27005KT 10SM OVC090 02/M04 A2990 RMK AO2 SLP154 T00211038 $
Loading
Personal Weather Stations






























Interactive Weather Map New forecast layout! Learn more

10-Day Weather Forecast

Advertisements
Track Severe Weather on mobile